createdAt,value
2022-11-17T00:03:31.978Z,100.00
2022-11-17T00:08:34.265Z,100.00
2022-11-17T00:13:55.056Z,100.00
2022-11-17T00:19:15.741Z,100.00
2022-11-17T00:24:18.128Z,100.00
2022-11-17T00:29:20.395Z,100.00
2022-11-17T00:34:23.698Z,100.00
2022-11-17T00:39:25.728Z,100.00
2022-11-17T00:44:28.440Z,100.00
2022-11-17T00:49:30.688Z,100.00
2022-11-17T00:54:32.813Z,100.00
2022-11-17T00:59:34.953Z,100.00
2022-11-17T01:04:37.155Z,100.00
2022-11-17T01:09:39.233Z,100.00
2022-11-17T01:14:41.305Z,100.00
2022-11-17T01:19:43.356Z,100.00
2022-11-17T01:24:45.583Z,100.00
2022-11-17T01:29:48.154Z,100.00
2022-11-17T01:34:50.452Z,100.00
2022-11-17T01:39:52.525Z,100.00
2022-11-17T01:45:19.365Z,100.00
2022-11-17T01:50:36.723Z,100.00
2022-11-17T01:55:47.261Z,100.00
2022-11-17T02:00:49.629Z,100.00
2022-11-17T02:06:08.865Z,92.69
2022-11-17T02:11:16.457Z,94.14
2022-11-17T02:16:18.756Z,90.92
2022-11-17T02:22:09.320Z,88.42
2022-11-17T02:27:33.407Z,93.76
2022-11-17T02:32:45.936Z,93.25
2022-11-17T02:37:58.637Z,94.48
2022-11-17T02:43:22.492Z,91.75
2022-11-17T02:48:48.289Z,95.29
2022-11-17T02:53:54.137Z,89.81
2022-11-17T02:59:03.231Z,86.28
2022-11-17T03:04:34.640Z,85.88
2022-11-17T03:09:39.631Z,88.48
2022-11-17T03:14:44.753Z,89.73
2022-11-17T03:20:08.743Z,88.81
2022-11-17T03:25:17.920Z,82.78
2022-11-17T03:30:22.576Z,79.20
2022-11-17T03:35:29.326Z,75.75
2022-11-17T03:40:34.175Z,75.35
2022-11-17T03:45:44.107Z,77.66
2022-11-17T03:51:04.951Z,78.58
2022-11-17T03:56:44.608Z,81.55
2022-11-17T04:01:46.881Z,86.63
2022-11-17T04:06:53.468Z,90.39
2022-11-17T04:12:17.510Z,87.52
2022-11-17T04:17:21.719Z,84.49
2022-11-17T04:22:25.507Z,82.25
2022-11-17T04:27:45.925Z,83.65
2022-11-17T04:32:49.277Z,82.88
2022-11-17T04:37:51.492Z,81.18
2022-11-17T04:42:53.747Z,87.37
2022-11-17T04:47:55.852Z,86.55
2022-11-17T04:52:58.296Z,82.65
2022-11-17T04:58:00.375Z,86.64
2022-11-17T05:03:02.874Z,86.02
2022-11-17T05:08:08.074Z,86.55
2022-11-17T05:13:22.540Z,85.20
2022-11-17T05:18:24.779Z,83.90
2022-11-17T05:23:45.416Z,84.00
2022-11-17T05:28:47.790Z,83.29
2022-11-17T05:33:50.151Z,82.08
2022-11-17T05:38:52.977Z,80.04
2022-11-17T05:43:55.470Z,76.27
2022-11-17T05:48:57.830Z,81.24
2022-11-17T05:54:00.096Z,83.91
2022-11-17T05:59:14.875Z,83.09
2022-11-17T06:04:24.356Z,83.07
2022-11-17T06:09:31.908Z,80.83
2022-11-17T06:14:35.912Z,78.77
2022-11-17T06:19:45.766Z,77.73
2022-11-17T06:24:48.150Z,73.46
2022-11-17T06:29:50.469Z,72.88
2022-11-17T06:34:56.174Z,71.69
2022-11-17T06:40:08.514Z,69.75
2022-11-17T06:45:11.639Z,74.37
2022-11-17T06:50:13.890Z,73.98
2022-11-17T06:55:22.124Z,74.39
2022-11-17T07:00:24.344Z,74.41
2022-11-17T07:05:26.880Z,82.81
2022-11-17T07:10:30.249Z,86.74
2022-11-17T07:15:32.646Z,92.48
2022-11-17T07:20:34.939Z,95.20
2022-11-17T07:25:37.278Z,100.00
2022-11-17T07:30:39.432Z,100.00
2022-11-17T07:35:41.858Z,100.00
2022-11-17T07:40:44.135Z,100.00
2022-11-17T07:45:46.214Z,100.00
2022-11-17T07:50:48.365Z,100.00
2022-11-17T07:55:50.587Z,100.00
2022-11-17T08:00:52.983Z,100.00
2022-11-17T08:05:55.360Z,100.00
2022-11-17T08:10:57.876Z,100.00
2022-11-17T08:16:00.624Z,100.00
2022-11-17T08:21:15.078Z,100.00
2022-11-17T08:26:17.450Z,100.00
2022-11-17T08:31:19.705Z,100.00
2022-11-17T08:36:22.048Z,100.00
2022-11-17T08:41:26.020Z,100.00
2022-11-17T08:46:28.297Z,100.00
2022-11-17T08:51:30.606Z,100.00
2022-11-17T08:56:32.757Z,100.00
2022-11-17T09:01:35.114Z,100.00
2022-11-17T09:06:38.178Z,100.00
2022-11-17T09:11:40.575Z,100.00
2022-11-17T09:16:42.693Z,100.00
2022-11-17T09:21:45.078Z,100.00
2022-11-17T09:26:47.334Z,100.00
2022-11-17T09:31:49.932Z,100.00
2022-11-17T09:36:52.581Z,100.00
2022-11-17T09:41:57.578Z,100.00
2022-11-17T09:47:24.949Z,100.00
2022-11-17T09:52:42.367Z,100.00
2022-11-17T09:57:49.276Z,100.00
2022-11-17T10:02:53.063Z,100.00
2022-11-17T10:08:00.319Z,100.00
2022-11-17T10:13:05.614Z,100.00
2022-11-17T10:18:29.876Z,99.61
2022-11-17T10:23:44.617Z,100.00
2022-11-17T10:29:08.554Z,98.68
2022-11-17T10:34:34.141Z,96.98
2022-11-17T10:39:41.995Z,94.34
2022-11-17T10:44:51.477Z,81.37
2022-11-17T10:50:28.287Z,80.01
2022-11-17T10:55:34.303Z,78.33
2022-11-17T11:00:37.755Z,82.02
2022-11-17T11:05:55.738Z,83.83
2022-11-17T11:11:00.114Z,85.99
2022-11-17T11:16:02.467Z,87.84
2022-11-17T11:21:23.260Z,85.99
2022-11-17T11:27:06.231Z,86.12
2022-11-17T11:32:37.828Z,85.22
2022-11-17T11:38:11.911Z,85.38
2022-11-17T11:43:32.046Z,84.90
2022-11-17T11:48:38.639Z,88.76
2022-11-17T11:53:59.200Z,89.16
2022-11-17T11:59:08.255Z,88.49
2022-11-17T12:04:50.760Z,87.50
2022-11-17T12:10:08.476Z,85.24
2022-11-17T12:15:19.932Z,86.55
2022-11-17T12:20:31.412Z,87.98
2022-11-17T12:25:36.383Z,86.65
2022-11-17T12:30:38.872Z,86.27
2022-11-17T12:35:41.120Z,86.75
2022-11-17T12:40:48.617Z,85.02
2022-11-17T12:45:53.844Z,84.47
2022-11-17T12:51:05.048Z,83.32
2022-11-17T12:56:19.701Z,82.54
2022-11-17T13:01:45.148Z,82.78
2022-11-17T13:07:05.558Z,82.94
2022-11-17T13:12:10.855Z,84.85
2022-11-17T13:17:13.199Z,84.55
2022-11-17T13:22:19.397Z,84.48
2022-11-17T13:27:28.665Z,84.57
2022-11-17T13:32:31.117Z,84.68
2022-11-17T13:37:33.516Z,85.61
2022-11-17T13:42:35.875Z,86.34
2022-11-17T13:47:37.952Z,87.32
2022-11-17T13:52:46.510Z,90.08
2022-11-17T13:58:00.332Z,92.96
2022-11-17T14:03:05.063Z,95.20
2022-11-17T14:08:23.607Z,96.40
2022-11-17T14:13:31.167Z,100.00
2022-11-17T14:18:39.369Z,100.00
2022-11-17T14:23:43.118Z,100.00
2022-11-17T14:28:45.322Z,100.00
2022-11-17T14:33:47.710Z,100.00
2022-11-17T14:38:50.192Z,100.00
2022-11-17T14:43:52.752Z,100.00
2022-11-17T14:48:55.961Z,100.00
2022-11-17T14:53:58.373Z,100.00
2022-11-17T14:59:00.867Z,100.00
2022-11-17T15:04:27.326Z,100.00
2022-11-17T15:09:26.339Z,100.00
2022-11-17T15:14:28.792Z,100.00
2022-11-17T15:19:31.133Z,100.00
2022-11-17T15:24:33.420Z,100.00
2022-11-17T15:29:35.770Z,100.00
2022-11-17T15:34:38.049Z,100.00
2022-11-17T15:39:40.297Z,100.00
2022-11-17T15:44:42.585Z,100.00
2022-11-17T15:49:46.968Z,100.00
2022-11-17T15:54:49.087Z,100.00
2022-11-17T15:59:52.124Z,100.00
2022-11-17T16:04:56.112Z,100.00
2022-11-17T16:09:58.995Z,100.00
2022-11-17T16:15:02.292Z,100.00
2022-11-17T16:20:06.332Z,100.00
2022-11-17T16:25:10.741Z,100.00
2022-11-17T16:30:13.382Z,100.00
2022-11-17T16:35:16.095Z,100.00
2022-11-17T16:40:20.056Z,100.00
2022-11-17T16:45:22.283Z,100.00
2022-11-17T16:50:24.573Z,100.00
2022-11-17T16:55:26.717Z,100.00
2022-11-17T17:00:29.023Z,100.00
2022-11-17T17:05:31.543Z,100.00
2022-11-17T17:10:34.121Z,100.00
2022-11-17T17:15:36.406Z,100.00
2022-11-17T17:20:38.511Z,100.00
2022-11-17T17:25:40.639Z,100.00
2022-11-17T17:30:42.914Z,100.00
2022-11-17T17:35:45.146Z,100.00
2022-11-17T17:40:47.402Z,100.00
2022-11-17T17:45:49.511Z,100.00
2022-11-17T17:50:51.647Z,100.00
2022-11-17T17:55:58.053Z,100.00
2022-11-17T18:01:16.181Z,100.00
2022-11-17T18:06:21.265Z,100.00
2022-11-17T18:11:23.776Z,100.00
2022-11-17T18:16:29.133Z,100.00
2022-11-17T18:21:31.729Z,100.00
2022-11-17T18:26:36.310Z,100.00
2022-11-17T18:31:38.573Z,100.00
2022-11-17T18:36:41.159Z,100.00
2022-11-17T18:41:43.940Z,100.00
2022-11-17T18:46:46.578Z,100.00
2022-11-17T18:51:50.067Z,100.00
2022-11-17T18:56:52.350Z,100.00
2022-11-17T19:01:54.517Z,100.00
2022-11-17T19:06:57.071Z,100.00
2022-11-17T19:11:59.267Z,100.00
2022-11-17T19:17:01.546Z,100.00
2022-11-17T19:22:03.704Z,100.00
2022-11-17T19:27:05.800Z,100.00
2022-11-17T19:32:07.875Z,100.00
2022-11-17T19:37:10.091Z,100.00
2022-11-17T19:42:12.615Z,100.00
2022-11-17T19:47:14.839Z,100.00
2022-11-17T19:52:17.262Z,100.00
2022-11-17T19:57:19.975Z,100.00
2022-11-17T20:02:22.171Z,100.00
2022-11-17T20:07:24.350Z,100.00
2022-11-17T20:12:26.619Z,100.00
2022-11-17T20:17:28.870Z,100.00
2022-11-17T20:22:32.131Z,100.00
2022-11-17T20:27:34.407Z,100.00
2022-11-17T20:32:37.388Z,100.00
2022-11-17T20:37:39.553Z,100.00
2022-11-17T20:42:41.800Z,100.00
2022-11-17T20:47:43.890Z,100.00
2022-11-17T20:52:45.939Z,100.00
2022-11-17T20:57:48.291Z,100.00
2022-11-17T21:02:50.452Z,100.00
2022-11-17T21:07:52.459Z,100.00
2022-11-17T21:12:54.763Z,100.00
2022-11-17T21:18:15.412Z,100.00
2022-11-17T21:23:17.772Z,100.00
2022-11-17T21:28:19.893Z,100.00
2022-11-17T21:33:21.910Z,100.00
2022-11-17T21:38:24.441Z,100.00
2022-11-17T21:43:26.551Z,100.00
2022-11-17T21:48:28.872Z,100.00
2022-11-17T21:53:31.997Z,100.00
2022-11-17T21:58:34.816Z,100.00
2022-11-17T22:03:38.052Z,100.00
2022-11-17T22:08:42.330Z,100.00
2022-11-17T22:13:44.507Z,100.00
2022-11-17T22:18:46.786Z,100.00
2022-11-17T22:23:49.329Z,100.00
2022-11-17T22:28:53.880Z,100.00
2022-11-17T22:33:55.955Z,100.00
2022-11-17T22:38:58.356Z,100.00
2022-11-17T22:44:00.668Z,100.00
2022-11-17T22:49:03.406Z,100.00
2022-11-17T22:54:07.098Z,100.00
2022-11-17T22:59:09.687Z,100.00
2022-11-17T23:04:12.634Z,100.00
2022-11-17T23:09:14.843Z,100.00
2022-11-17T23:14:17.052Z,100.00
2022-11-17T23:19:19.802Z,100.00
2022-11-17T23:24:22.209Z,100.00
2022-11-17T23:29:24.306Z,100.00
2022-11-17T23:34:27.851Z,100.00
2022-11-17T23:39:30.006Z,100.00
2022-11-17T23:44:32.274Z,100.00
2022-11-17T23:49:34.476Z,100.00
2022-11-17T23:54:36.718Z,100.00
2022-11-17T23:59:38.823Z,100.00
